createdAt,value
2022-08-19T00:02:11.699Z,21.63
2022-08-19T00:05:15.402Z,21.73
2022-08-19T00:08:18.954Z,21.66
2022-08-19T00:11:25.777Z,21.58
2022-08-19T00:14:30.173Z,21.47
2022-08-19T00:17:31.657Z,21.25
2022-08-19T00:20:33.123Z,21.22
2022-08-19T00:23:35.821Z,21.25
2022-08-19T00:26:38.053Z,21.29
2022-08-19T00:29:39.506Z,21.17
2022-08-19T00:32:41.219Z,21.29
2022-08-19T00:35:42.871Z,21.25
2022-08-19T00:38:44.855Z,21.20
2022-08-19T00:41:48.440Z,21.29
2022-08-19T00:44:51.412Z,21.22
2022-08-19T00:47:53.303Z,21.19
2022-08-19T00:50:56.427Z,21.32
2022-08-19T00:53:59.618Z,21.42
2022-08-19T00:57:04.423Z,21.27
2022-08-19T01:00:14.345Z,21.28
2022-08-19T01:03:19.661Z,21.26
2022-08-19T01:06:21.582Z,21.24
2022-08-19T01:09:23.110Z,21.23
2022-08-19T01:12:24.770Z,21.25
2022-08-19T01:15:33.289Z,21.11
2022-08-19T01:18:39.776Z,21.08
2022-08-19T01:21:56.502Z,21.04
2022-08-19T01:24:58.180Z,21.05
2022-08-19T01:28:06.419Z,21.19
2022-08-19T01:31:27.238Z,21.21
2022-08-19T01:34:29.271Z,21.06
2022-08-19T01:37:42.056Z,21.14
2022-08-19T01:40:43.635Z,21.12
2022-08-19T01:44:03.165Z,21.22
2022-08-19T01:47:08.985Z,21.29
2022-08-19T01:50:11.936Z,21.24
2022-08-19T01:53:13.410Z,21.21
2022-08-19T01:56:15.379Z,21.19
2022-08-19T01:59:21.393Z,21.24
2022-08-19T02:02:22.804Z,21.23
2022-08-19T02:05:24.677Z,21.26
2022-08-19T02:08:28.128Z,21.18
2022-08-19T02:11:34.291Z,21.12
2022-08-19T02:14:37.145Z,21.21
2022-08-19T02:17:40.095Z,21.24
2022-08-19T02:20:43.661Z,21.25
2022-08-19T02:23:46.239Z,21.34
2022-08-19T02:26:47.727Z,21.23
2022-08-19T02:29:50.551Z,21.32
2022-08-19T02:32:52.765Z,21.46
2022-08-19T02:35:54.202Z,21.42
2022-08-19T02:38:55.949Z,21.29
2022-08-19T02:42:00.641Z,21.20
2022-08-19T02:45:02.097Z,21.10
2022-08-19T02:48:05.744Z,21.14
2022-08-19T02:51:28.771Z,21.07
2022-08-19T02:54:30.298Z,21.20
2022-08-19T02:57:32.717Z,21.28
2022-08-19T03:00:34.239Z,21.16
2022-08-19T03:03:41.077Z,21.15
2022-08-19T03:06:46.199Z,21.06
2022-08-19T03:09:47.647Z,21.23
2022-08-19T03:13:07.221Z,21.32
2022-08-19T03:16:08.614Z,21.29
2022-08-19T03:19:10.166Z,21.11
2022-08-19T03:22:11.736Z,20.98
2022-08-19T03:25:13.366Z,20.90
2022-08-19T03:28:15.833Z,20.84
2022-08-19T03:31:43.517Z,20.91
2022-08-19T03:34:41.719Z,20.95
2022-08-19T03:37:43.190Z,20.80
2022-08-19T03:40:44.719Z,20.66
2022-08-19T03:43:50.610Z,20.68
2022-08-19T03:46:59.629Z,20.76
2022-08-19T03:50:01.207Z,20.69
2022-08-19T03:53:02.697Z,20.66
2022-08-19T03:56:04.319Z,20.51
2022-08-19T03:59:10.216Z,20.49
2022-08-19T04:02:13.024Z,20.44
2022-08-19T04:05:15.842Z,20.29
2022-08-19T04:08:21.007Z,20.40
2022-08-19T04:11:43.842Z,20.08
2022-08-19T04:14:46.598Z,20.18
2022-08-19T04:17:47.992Z,20.42
2022-08-19T04:20:50.646Z,20.20
2022-08-19T04:23:52.488Z,20.11
2022-08-19T04:26:57.423Z,20.08
2022-08-19T04:29:58.857Z,20.02
2022-08-19T04:33:00.287Z,20.09
2022-08-19T04:36:01.745Z,20.02
2022-08-19T04:39:09.438Z,19.99
2022-08-19T04:42:30.589Z,20.09
2022-08-19T04:45:39.552Z,19.99
2022-08-19T04:48:49.473Z,19.93
2022-08-19T04:51:54.877Z,19.97
2022-08-19T04:54:56.393Z,20.11
2022-08-19T04:57:57.799Z,20.15
2022-08-19T05:01:01.007Z,20.21
2022-08-19T05:04:05.722Z,20.39
2022-08-19T05:07:09.224Z,20.31
2022-08-19T05:10:11.215Z,20.38
2022-08-19T05:13:12.757Z,20.40
2022-08-19T05:16:16.135Z,20.35
2022-08-19T05:19:36.247Z,20.31
2022-08-19T05:22:38.210Z,20.50
2022-08-19T05:25:41.106Z,20.48
2022-08-19T05:28:43.135Z,20.51
2022-08-19T05:31:45.843Z,20.34
2022-08-19T05:34:47.363Z,20.30
2022-08-19T05:37:48.856Z,20.38
2022-08-19T05:40:56.431Z,20.46
2022-08-19T05:43:59.237Z,20.51
2022-08-19T05:47:03.068Z,20.67
2022-08-19T05:50:05.336Z,20.74
2022-08-19T05:53:07.126Z,20.79
2022-08-19T05:56:11.722Z,20.81
2022-08-19T05:59:13.224Z,20.78
2022-08-19T06:02:15.331Z,20.92
2022-08-19T06:05:16.875Z,21.00
2022-08-19T06:08:19.273Z,21.09
2022-08-19T06:11:36.485Z,21.09
2022-08-19T06:14:41.881Z,21.19
2022-08-19T06:17:45.391Z,21.27
2022-08-19T06:20:55.982Z,21.23
2022-08-19T06:23:58.400Z,21.31
2022-08-19T06:27:01.646Z,21.33
2022-08-19T06:30:05.447Z,21.42
2022-08-19T06:33:06.885Z,21.39
2022-08-19T06:36:09.411Z,21.36
2022-08-19T06:39:14.814Z,21.43
2022-08-19T06:42:19.403Z,21.49
2022-08-19T06:45:25.144Z,21.43
2022-08-19T06:48:44.991Z,21.48
2022-08-19T06:51:48.658Z,21.52
2022-08-19T06:54:56.493Z,21.65
2022-08-19T06:57:58.392Z,21.53
2022-08-19T07:01:07.100Z,21.63
2022-08-19T07:04:12.081Z,21.64
2022-08-19T07:07:20.000Z,21.66
2022-08-19T07:10:22.641Z,21.63
2022-08-19T07:13:27.548Z,21.69
2022-08-19T07:16:30.114Z,21.73
2022-08-19T07:19:32.665Z,21.89
2022-08-19T07:22:35.471Z,22.01
2022-08-19T07:25:38.302Z,22.17
2022-08-19T07:28:40.314Z,22.17
2022-08-19T07:31:53.690Z,22.04
2022-08-19T07:34:57.113Z,22.14
2022-08-19T07:38:00.151Z,22.19
2022-08-19T07:41:02.125Z,22.25
2022-08-19T07:44:06.269Z,22.14
2022-08-19T07:47:07.923Z,22.14
2022-08-19T07:50:29.689Z,22.34
2022-08-19T07:53:36.702Z,22.32
2022-08-19T07:56:41.065Z,22.36
2022-08-19T07:59:42.610Z,22.52
2022-08-19T08:02:44.131Z,22.64
2022-08-19T08:06:04.998Z,22.73
2022-08-19T08:09:13.365Z,22.76
2022-08-19T08:12:35.180Z,22.86
2022-08-19T08:15:42.560Z,22.97
2022-08-19T08:18:50.654Z,23.03
2022-08-19T08:21:58.405Z,22.98
2022-08-19T08:25:05.024Z,23.15
2022-08-19T08:28:11.362Z,23.40
2022-08-19T08:31:22.492Z,23.52
2022-08-19T08:34:24.143Z,23.65
2022-08-19T08:37:25.611Z,23.68
2022-08-19T08:41:07.229Z,23.94
2022-08-19T08:44:20.132Z,23.92
2022-08-19T08:47:25.796Z,23.85
2022-08-19T08:50:39.113Z,23.94
2022-08-19T08:53:43.270Z,24.23
2022-08-19T08:56:48.781Z,24.30
2022-08-19T08:59:56.971Z,24.34
2022-08-19T09:03:02.699Z,24.33
2022-08-19T09:06:32.100Z,24.35
2022-08-19T09:09:40.484Z,24.28
2022-08-19T09:12:46.650Z,24.50
2022-08-19T09:15:55.991Z,24.60
2022-08-19T09:19:03.611Z,24.65
2022-08-19T09:22:08.595Z,24.97
2022-08-19T09:25:14.519Z,25.09
2022-08-19T09:28:27.032Z,25.08
2022-08-19T09:31:31.043Z,25.26
2022-08-19T09:34:37.761Z,25.33
2022-08-19T09:37:40.409Z,25.51
2022-08-19T09:40:42.009Z,25.55
2022-08-19T09:43:48.019Z,25.52
2022-08-19T09:46:50.175Z,25.71
2022-08-19T09:49:51.689Z,25.56
2022-08-19T09:52:57.772Z,25.46
2022-08-19T09:55:59.342Z,25.59
2022-08-19T09:59:02.629Z,25.88
2022-08-19T10:02:10.821Z,25.92
2022-08-19T10:05:31.396Z,25.80
2022-08-19T10:08:37.379Z,26.11
2022-08-19T10:11:49.862Z,26.11
2022-08-19T10:14:55.454Z,26.16
2022-08-19T10:17:57.039Z,26.52
2022-08-19T10:21:12.555Z,26.48
2022-08-19T10:24:14.125Z,26.69
2022-08-19T10:27:16.571Z,26.59
2022-08-19T10:30:18.901Z,26.54
2022-08-19T10:33:38.949Z,26.83
2022-08-19T10:36:56.508Z,26.84
2022-08-19T10:40:03.199Z,26.77
2022-08-19T10:43:04.849Z,26.93
2022-08-19T10:46:13.713Z,26.77
2022-08-19T10:49:15.941Z,26.94
2022-08-19T10:52:38.939Z,27.18
2022-08-19T10:55:59.363Z,27.16
2022-08-19T10:59:00.999Z,27.19
2022-08-19T11:02:05.314Z,27.03
2022-08-19T11:05:12.726Z,27.23
2022-08-19T11:08:23.061Z,27.41
2022-08-19T11:11:25.582Z,27.11
2022-08-19T11:14:27.116Z,27.27
2022-08-19T11:17:33.955Z,27.17
2022-08-19T11:20:35.582Z,27.25
2022-08-19T11:23:37.144Z,27.68
2022-08-19T11:26:40.013Z,27.51
2022-08-19T11:29:41.682Z,27.88
2022-08-19T11:32:47.260Z,27.50
2022-08-19T11:35:50.800Z,27.76
2022-08-19T11:38:52.924Z,27.77
2022-08-19T11:41:54.409Z,27.73
2022-08-19T11:44:55.929Z,27.90
2022-08-19T11:47:58.077Z,28.14
2022-08-19T11:51:00.146Z,28.03
2022-08-19T11:54:02.372Z,27.60
2022-08-19T11:57:04.915Z,27.89
2022-08-19T12:00:08.118Z,28.44
2022-08-19T12:06:29.633Z,27.76
2022-08-19T12:09:32.697Z,27.55
2022-08-19T12:12:34.401Z,28.09
2022-08-19T12:15:41.678Z,27.89
2022-08-19T12:18:47.384Z,28.09
2022-08-19T12:21:48.996Z,28.17
2022-08-19T12:24:53.150Z,28.34
2022-08-19T12:27:57.649Z,28.12
2022-08-19T12:30:59.386Z,27.60
2022-08-19T12:34:01.481Z,27.65
2022-08-19T12:37:05.886Z,28.01
2022-08-19T12:40:08.173Z,28.07
2022-08-19T12:43:09.798Z,27.59
2022-08-19T12:46:12.439Z,27.52
2022-08-19T12:49:30.422Z,27.37
2022-08-19T12:52:38.121Z,27.27
2022-08-19T12:55:39.686Z,27.76
2022-08-19T12:58:42.650Z,28.43
2022-08-19T13:01:50.692Z,27.84
2022-08-19T13:04:52.256Z,27.70
2022-08-19T13:07:57.079Z,27.57
2022-08-19T13:10:59.204Z,28.00
2022-08-19T13:14:02.885Z,28.77
2022-08-19T13:17:04.580Z,29.09
2022-08-19T13:20:09.368Z,29.20
2022-08-19T13:23:11.126Z,28.65
2022-08-19T13:26:13.822Z,28.06
2022-08-19T13:29:34.012Z,27.98
2022-08-19T13:32:53.862Z,27.96
2022-08-19T13:36:01.293Z,28.91
2022-08-19T13:39:04.267Z,28.46
2022-08-19T13:42:07.082Z,29.06
2022-08-19T13:45:09.905Z,29.33
2022-08-19T13:48:11.606Z,29.57
2022-08-19T13:51:13.019Z,30.25
2022-08-19T13:54:14.560Z,30.01
2022-08-19T13:57:16.033Z,30.05
2022-08-19T14:00:19.187Z,30.08
2022-08-19T14:03:20.629Z,29.60
2022-08-19T14:06:23.252Z,29.04
2022-08-19T14:09:24.780Z,29.14
2022-08-19T14:12:28.416Z,28.99
2022-08-19T14:15:31.243Z,29.27
2022-08-19T14:18:32.709Z,29.49
2022-08-19T14:21:36.556Z,29.38
2022-08-19T14:24:41.288Z,29.52
2022-08-19T14:27:49.734Z,29.21
2022-08-19T14:30:51.256Z,29.06
2022-08-19T14:33:58.052Z,28.79
2022-08-19T14:36:59.584Z,28.91
2022-08-19T14:40:04.861Z,29.08
2022-08-19T14:43:06.471Z,29.29
2022-08-19T14:46:08.907Z,30.10
2022-08-19T14:49:12.151Z,30.00
2022-08-19T14:52:13.695Z,29.93
2022-08-19T14:55:17.557Z,30.06
2022-08-19T14:58:29.823Z,30.04
2022-08-19T15:01:32.095Z,30.52
2022-08-19T15:04:33.913Z,30.12
2022-08-19T15:07:36.807Z,30.03
2022-08-19T15:10:41.447Z,29.90
2022-08-19T15:13:44.982Z,30.15
2022-08-19T15:16:46.411Z,29.83
2022-08-19T15:19:47.948Z,29.85
2022-08-19T15:22:50.097Z,30.07
2022-08-19T15:25:55.789Z,30.00
2022-08-19T15:28:58.446Z,29.84
2022-08-19T15:31:59.881Z,29.55
2022-08-19T15:35:04.616Z,29.66
2022-08-19T15:38:06.512Z,29.69
2022-08-19T15:41:37.095Z,29.81
2022-08-19T15:44:39.092Z,29.78
2022-08-19T15:47:41.340Z,29.62
2022-08-19T15:50:44.140Z,29.53
2022-08-19T15:53:45.971Z,29.60
2022-08-19T15:57:07.613Z,29.32
2022-08-19T16:00:28.191Z,29.35
2022-08-19T16:03:48.093Z,29.25
2022-08-19T16:06:57.053Z,29.25
2022-08-19T16:09:58.507Z,29.30
2022-08-19T16:13:20.233Z,29.08
2022-08-19T16:16:24.034Z,29.03
2022-08-19T16:19:33.300Z,29.03
2022-08-19T16:22:34.999Z,28.99
2022-08-19T16:25:36.515Z,28.83
2022-08-19T16:28:38.331Z,28.81
2022-08-19T16:31:42.131Z,28.83
2022-08-19T16:34:43.655Z,28.81
2022-08-19T16:37:45.597Z,28.74
2022-08-19T16:40:53.870Z,28.76
2022-08-19T16:43:55.761Z,28.74
2022-08-19T16:46:59.640Z,28.99
2022-08-19T16:50:01.625Z,29.25
2022-08-19T16:53:03.751Z,29.38
2022-08-19T16:56:05.500Z,29.30
2022-08-19T16:59:06.973Z,29.39
2022-08-19T17:02:08.492Z,29.12
2022-08-19T17:05:11.945Z,29.01
2022-08-19T17:08:16.826Z,28.83
2022-08-19T17:11:19.811Z,28.71
2022-08-19T17:14:21.940Z,28.70
2022-08-19T17:17:28.321Z,28.67
2022-08-19T17:20:31.637Z,28.61
2022-08-19T17:23:43.168Z,28.56
2022-08-19T17:26:45.756Z,28.53
2022-08-19T17:29:47.348Z,28.49
2022-08-19T17:32:49.022Z,28.54
2022-08-19T17:35:50.630Z,28.55
2022-08-19T17:38:55.178Z,28.54
2022-08-19T17:41:57.030Z,28.53
2022-08-19T17:45:05.287Z,28.57
2022-08-19T17:48:07.277Z,28.54
2022-08-19T17:51:24.515Z,28.56
2022-08-19T17:54:31.845Z,28.49
2022-08-19T17:57:35.488Z,28.50
2022-08-19T18:00:37.044Z,28.43
2022-08-19T18:03:54.180Z,28.30
2022-08-19T18:06:56.639Z,28.25
2022-08-19T18:09:58.748Z,28.26
2022-08-19T18:13:17.096Z,28.15
2022-08-19T18:16:20.779Z,28.15
2022-08-19T18:19:24.135Z,28.04
2022-08-19T18:22:36.263Z,27.94
2022-08-19T18:25:41.953Z,27.78
2022-08-19T18:28:49.936Z,27.77
2022-08-19T18:31:51.633Z,27.73
2022-08-19T18:34:55.290Z,27.60
2022-08-19T18:37:59.699Z,27.44
2022-08-19T18:41:20.892Z,27.38
2022-08-19T18:44:41.083Z,27.16
2022-08-19T18:48:27.240Z,27.04
2022-08-19T18:51:30.195Z,27.02
2022-08-19T18:54:31.830Z,26.93
2022-08-19T18:57:33.527Z,26.82
2022-08-19T19:00:37.445Z,26.72
2022-08-19T19:03:49.920Z,26.65
2022-08-19T19:06:51.845Z,26.50
2022-08-19T19:09:53.338Z,26.51
2022-08-19T19:12:54.863Z,26.39
2022-08-19T19:15:56.891Z,26.38
2022-08-19T19:18:59.070Z,26.21
2022-08-19T19:22:03.161Z,26.33
2022-08-19T19:25:05.205Z,26.13
2022-08-19T19:28:09.932Z,25.94
2022-08-19T19:31:20.121Z,25.99
2022-08-19T19:34:29.814Z,25.92
2022-08-19T19:37:31.590Z,25.87
2022-08-19T19:40:33.036Z,25.74
2022-08-19T19:43:40.938Z,25.42
2022-08-19T19:46:43.384Z,25.36
2022-08-19T19:50:10.774Z,25.30
2022-08-19T19:53:07.411Z,25.12
2022-08-19T19:56:10.104Z,25.14
2022-08-19T19:59:12.022Z,25.14
2022-08-19T20:02:16.669Z,24.87
2022-08-19T20:05:23.370Z,24.73
2022-08-19T20:08:47.627Z,24.64
2022-08-19T20:11:54.884Z,24.53
2022-08-19T20:14:56.333Z,24.43
2022-08-19T20:17:59.364Z,24.45
2022-08-19T20:21:00.837Z,24.73
2022-08-19T20:24:09.019Z,24.83
2022-08-19T20:27:11.442Z,24.83
2022-08-19T20:30:19.491Z,24.95
2022-08-19T20:33:21.293Z,24.91
2022-08-19T20:36:24.501Z,24.94
2022-08-19T20:39:26.034Z,24.92
2022-08-19T20:42:28.328Z,24.88
2022-08-19T20:45:33.075Z,24.83
2022-08-19T20:48:38.286Z,24.76
2022-08-19T20:51:40.098Z,24.72
2022-08-19T20:54:41.647Z,24.78
2022-08-19T20:57:43.115Z,24.75
2022-08-19T21:00:45.999Z,24.67
2022-08-19T21:03:48.396Z,24.75
2022-08-19T21:06:50.676Z,24.58
2022-08-19T21:09:52.475Z,24.51
2022-08-19T21:12:54.816Z,24.51
2022-08-19T21:15:56.318Z,24.34
2022-08-19T21:18:57.925Z,24.34
2022-08-19T21:22:00.724Z,24.31
2022-08-19T21:25:03.251Z,24.31
2022-08-19T21:28:05.768Z,24.30
2022-08-19T21:31:10.279Z,24.29
2022-08-19T21:34:11.924Z,24.21
2022-08-19T21:37:17.587Z,24.22
2022-08-19T21:40:27.246Z,24.23
2022-08-19T21:43:28.741Z,24.20
2022-08-19T21:46:30.296Z,24.11
2022-08-19T21:49:31.958Z,24.08
2022-08-19T21:52:37.438Z,24.04
2022-08-19T21:55:39.329Z,24.01
2022-08-19T21:58:41.362Z,23.96
2022-08-19T22:01:48.231Z,24.02
2022-08-19T22:04:52.991Z,24.05
2022-08-19T22:07:59.772Z,23.98
2022-08-19T22:11:03.528Z,24.00
2022-08-19T22:14:05.598Z,23.88
2022-08-19T22:17:09.345Z,23.77
2022-08-19T22:20:15.683Z,23.70
2022-08-19T22:23:17.181Z,23.64
2022-08-19T22:26:18.773Z,23.46
2022-08-19T22:29:20.265Z,23.37
2022-08-19T22:32:35.946Z,23.40
2022-08-19T22:35:39.981Z,22.95
2022-08-19T22:38:41.744Z,22.87
2022-08-19T22:41:43.221Z,22.79
2022-08-19T22:44:44.663Z,22.59
2022-08-19T22:47:46.172Z,22.57
2022-08-19T22:51:07.750Z,22.43
2022-08-19T22:54:09.539Z,22.31
2022-08-19T22:57:11.348Z,22.04
2022-08-19T23:00:13.647Z,21.93
2022-08-19T23:03:15.181Z,21.81
2022-08-19T23:06:17.382Z,21.78
2022-08-19T23:09:19.703Z,21.77
2022-08-19T23:12:34.406Z,21.65
2022-08-19T23:15:36.259Z,21.56
2022-08-19T23:18:37.863Z,21.34
2022-08-19T23:21:41.270Z,21.15
2022-08-19T23:24:42.674Z,21.07
2022-08-19T23:28:04.392Z,21.08
2022-08-19T23:31:07.218Z,21.24
2022-08-19T23:34:08.696Z,21.08
2022-08-19T23:37:10.156Z,21.07
2022-08-19T23:40:11.723Z,21.08
2022-08-19T23:43:20.388Z,20.77
2022-08-19T23:46:28.119Z,20.89
2022-08-19T23:49:31.254Z,20.67
2022-08-19T23:52:35.244Z,20.62
2022-08-19T23:55:41.033Z,20.52
2022-08-19T23:58:42.482Z,20.54
